Time;durP1;ratioP1;P1;durP2;ratioP2;P2;SDS_P1;SDS_P2;PMS_P1;PMS_P2;Temp;Humidity;BMP_temperature;BMP_pressure;BME280_temperature;BME280_humidity;BME280_pressure;Samples;Min_cycle;Max_cycle;Signal;HPM_P1;HPM_P2
2023/07/02 00:02:18;;;;;;;12.48;5.57;;;17.50;99.90;;;16.49;100.00;99736.69;4987040;28;19997;-78
2023/07/02 00:04:45;;;;;;;15.60;5.53;;;17.40;99.90;;;16.49;100.00;99742.00;4925199;28;20047;-78
2023/07/02 00:07:10;;;;;;;14.95;5.10;;;17.40;99.90;;;16.54;100.00;99744.25;4964066;28;20738;-77
2023/07/02 00:09:37;;;;;;;16.08;5.50;;;17.40;99.90;;;16.55;100.00;99737.97;4946120;28;20058;-78
2023/07/02 00:12:03;;;;;;;14.98;5.85;;;17.40;99.90;;;16.56;100.00;99734.31;4948059;28;20121;-78
2023/07/02 00:14:29;;;;;;;10.02;5.45;;;17.40;99.90;;;16.53;100.00;99738.09;4958376;28;20064;-78
2023/07/02 00:16:55;;;;;;;15.10;5.57;;;17.40;99.90;;;16.54;100.00;99744.25;4983830;28;20038;-78
2023/07/02 00:19:23;;;;;;;10.98;5.30;;;17.40;99.90;;;16.51;100.00;99742.69;4947006;28;20034;-78
2023/07/02 00:21:49;;;;;;;14.98;5.43;;;17.40;99.90;;;16.49;100.00;99747.31;4970941;28;20102;-78
2023/07/02 00:24:15;;;;;;;14.15;5.57;;;17.40;99.90;;;16.48;100.00;99750.09;4925104;28;20030;-78
2023/07/02 00:26:41;;;;;;;17.52;5.50;;;17.40;99.90;;;16.47;100.00;99748.41;4951047;28;20440;-78
2023/07/02 00:29:09;;;;;;;20.33;5.68;;;17.30;99.90;;;16.47;100.00;99751.06;4967006;28;20051;-78
2023/07/02 00:31:35;;;;;;;12.20;4.82;;;17.40;99.90;;;16.43;100.00;99745.16;4965164;28;20053;-78
2023/07/02 00:34:02;;;;;;;15.32;5.35;;;17.40;99.90;;;16.43;100.00;99741.69;4962049;28;20034;-78
2023/07/02 00:36:31;;;;;;;14.55;5.35;;;17.30;99.90;;;16.39;100.00;99741.09;4965701;28;20029;-78
2023/07/02 00:38:58;;;;;;;13.57;5.38;;;17.30;99.90;;;16.35;100.00;99739.72;4935379;28;20042;-78
2023/07/02 00:41:24;;;;;;;19.02;5.40;;;17.20;99.90;;;16.31;100.00;99743.59;4969204;28;20038;-78
2023/07/02 00:43:54;;;;;;;14.00;4.80;;;17.20;99.90;;;16.30;100.00;99741.91;4948685;28;20038;-78
2023/07/02 00:46:22;;;;;;;17.27;4.60;;;;;;;16.22;100.00;99739.91;4985945;28;20038;-78
2023/07/02 00:48:50;;;;;;;16.92;4.93;;;17.20;99.90;;;16.18;100.00;99736.69;4966176;28;20030;-78
2023/07/02 00:51:21;;;;;;;17.00;4.90;;;17.10;99.90;;;16.15;100.00;99739.56;4968197;28;20126;-78
2023/07/02 00:53:49;;;;;;;15.13;4.93;;;17.10;99.90;;;16.14;100.00;99743.22;4951283;28;20038;-78
2023/07/02 00:56:15;;;;;;;12.95;4.57;;;17.00;99.90;;;16.11;100.00;99748.81;4960152;28;20045;-78
2023/07/02 00:58:48;;;;;;;16.65;4.57;;;17.00;99.90;;;16.07;100.00;99752.69;4987133;28;20042;-78
2023/07/02 01:01:25;;;;;;;18.70;5.03;;;17.00;99.90;;;16.01;100.00;99758.50;4955375;28;20120;-78
2023/07/02 01:03:57;;;;;;;20.63;4.72;;;16.90;99.90;;;15.97;100.00;99746.47;4972786;28;20037;-78
2023/07/02 01:06:33;;;;;;;16.67;4.13;;;16.90;99.90;;;15.91;100.00;99752.28;4973167;28;20093;-78
2023/07/02 01:09:04;;;;;;;11.18;3.63;;;16.80;99.90;;;15.85;100.00;99745.69;4968894;28;20426;-78
2023/07/02 01:11:43;;;;;;;19.60;4.35;;;16.70;99.90;;;15.79;100.00;99740.91;4956395;28;20133;-78
2023/07/02 01:14:16;;;;;;;13.98;4.55;;;16.70;99.90;;;15.73;100.00;99744.91;4952798;28;20042;-78
2023/07/02 01:16:44;;;;;;;15.00;4.32;;;16.70;99.90;;;15.70;100.00;99741.63;4950304;28;20042;-78
2023/07/02 01:19:21;;;;;;;20.60;4.78;;;16.60;99.90;;;15.67;100.00;99744.56;4942199;28;20034;-78
2023/07/02 01:21:50;;;;;;;19.58;4.55;;;16.60;99.90;;;15.58;100.00;99743.50;4952181;28;20424;-78
2023/07/02 01:24:17;;;;;;;17.48;4.50;;;16.50;99.90;;;15.52;100.00;99734.22;4971556;28;20034;-78
2023/07/02 01:26:43;;;;;;;21.33;4.75;;;16.50;99.90;;;15.46;100.00;99737.38;4952892;28;20090;-78
2023/07/02 01:29:20;;;;;;;14.48;4.32;;;16.40;99.90;;;15.41;100.00;99744.06;4971979;28;20041;-78
2023/07/02 01:31:47;;;;;;;15.63;4.80;;;16.40;99.90;;;15.33;100.00;99745.53;4973597;28;20054;-78
2023/07/02 01:34:14;;;;;;;17.77;4.53;;;16.30;99.90;;;15.31;100.00;99742.16;4987312;28;20057;-77
2023/07/02 01:36:42;;;;;;;18.27;5.28;;;16.30;99.90;;;15.29;100.00;99744.09;4963549;28;21215;-78
2023/07/02 01:39:08;;;;;;;21.02;4.57;;;16.30;99.90;;;15.29;100.00;99744.09;4934349;28;20407;-77
2023/07/02 01:41:43;;;;;;;22.15;5.20;;;16.30;99.90;;;15.31;100.00;99744.81;4969213;28;20045;-78
2023/07/02 01:44:11;;;;;;;19.75;4.82;;;16.20;99.90;;;15.29;100.00;99744.09;4971703;28;20034;-77
2023/07/02 01:46:38;;;;;;;16.40;5.25;;;16.20;99.90;;;15.29;100.00;99749.41;4951866;28;20033;-78
2023/07/02 01:49:03;;;;;;;20.02;4.28;;;16.30;99.90;;;15.26;100.00;99748.81;4971717;28;20041;-78
2023/07/02 01:51:29;;;;;;;20.85;5.05;;;16.20;99.90;;;15.26;100.00;99748.81;4976048;28;20030;-78
2023/07/02 01:53:55;;;;;;;21.55;5.20;;;16.20;99.90;;;15.24;100.00;99754.22;4972829;28;20102;-78
2023/07/02 01:56:21;;;;;;;23.63;4.65;;;16.20;99.90;;;15.21;100.00;99754.50;4950221;28;20038;-78
2023/07/02 01:58:46;;;;;;;;;;;16.20;99.90;;;15.13;100.00;99755.09;4990251;28;20065;-78
2023/07/02 02:01:15;;;;;;;25.30;4.97;;;16.10;99.90;;;15.12;100.00;99758.72;4985941;28;19931;-78
2023/07/02 02:03:43;;;;;;;18.42;4.32;;;16.10;99.90;;;15.11;100.00;99756.19;4984064;28;20057;-78
2023/07/02 02:06:09;;;;;;;21.35;4.47;;;16.10;99.90;;;15.12;100.00;99761.38;4986430;28;21186;-77
2023/07/02 02:08:34;;;;;;;16.75;4.57;;;16.10;99.90;;;15.13;100.00;99762.22;4974449;28;20547;-78
2023/07/02 02:11:00;;;;;;;18.90;4.63;;;16.10;99.90;;;15.14;100.00;99770.06;4938284;28;20554;-79
2023/07/02 02:13:26;;;;;;;18.05;4.55;;;16.10;99.90;;;15.11;100.00;99772.09;4963006;28;20042;-77
2023/07/02 02:15:54;;;;;;;18.42;4.07;;;16.10;99.90;;;15.11;100.00;99764.16;5008287;28;20045;-78
2023/07/02 02:18:20;;;;;;;17.33;4.43;;;16.10;99.90;;;15.09;100.00;99766.09;4954382;28;20474;-78
2023/07/02 02:20:46;;;;;;;18.75;5.03;;;16.00;99.90;;;15.06;100.00;99766.34;4985252;28;20061;-78
2023/07/02 02:23:11;;;;;;;;;;;16.00;99.90;;;14.95;100.00;99754.78;4983495;28;20494;-78
2023/07/02 02:25:37;;;;;;;17.52;4.78;;;16.00;99.90;;;14.97;100.00;99750.22;4974814;28;19921;-77
2023/07/02 02:28:03;;;;;;;;;;;16.00;99.90;;;14.91;100.00;99749.84;4969228;28;20118;-78
2023/07/02 02:30:29;;;;;;;20.38;4.53;;;15.90;99.90;;;14.89;100.00;99752.63;4961832;28;19925;-78
2023/07/02 02:32:55;;;;;;;18.52;5.47;;;15.90;99.90;;;14.92;100.00;99762.13;4988578;28;20115;-78
2023/07/02 02:35:23;;;;;;;19.73;4.65;;;15.90;99.90;;;14.94;100.00;99765.50;4991053;28;20115;-78
2023/07/02 02:37:49;;;;;;;18.20;5.10;;;15.90;99.90;;;14.93;100.00;99759.38;4950819;28;20104;-78
2023/07/02 02:40:15;;;;;;;21.23;5.05;;;15.90;99.90;;;14.91;100.00;99761.28;4992051;28;20077;-77
2023/07/02 02:42:40;;;;;;;18.58;5.40;;;15.90;99.90;;;14.86;100.00;99766.13;4956748;28;20039;-77
2023/07/02 02:45:06;;;;;;;;;;;15.90;99.90;;;14.75;100.00;99766.13;4996590;28;20509;-78
2023/07/02 02:47:32;;;;;;;14.93;4.57;;;15.80;99.90;;;14.70;100.00;99774.44;4988594;28;19952;-78
2023/07/02 02:49:59;;;;;;;19.25;5.55;;;15.70;99.90;;;14.65;100.00;99768.66;4924606;28;20060;-78
2023/07/02 02:52:29;;;;;;;20.20;4.95;;;15.70;99.90;;;14.62;100.00;99778.66;4988420;28;20038;-78
2023/07/02 02:54:55;;;;;;;20.90;5.72;;;15.60;99.90;;;14.59;100.00;99770.97;4969502;28;20062;-78
2023/07/02 02:57:21;;;;;;;19.27;5.93;;;15.60;99.90;;;14.55;100.00;99767.69;4941504;28;20443;-78
2023/07/02 02:59:47;;;;;;;22.70;5.88;;;15.60;99.90;;;14.54;100.00;99779.25;4974322;28;20041;-78
2023/07/02 03:02:13;;;;;;;17.58;5.63;;;15.50;99.90;;;14.51;100.00;99782.09;4997593;28;20062;-78
2023/07/02 03:04:44;;;;;;;23.40;5.13;;;15.50;99.90;;;14.51;100.00;99779.47;4982205;28;20031;-78
2023/07/02 03:07:09;;;;;;;20.75;5.80;;;15.50;99.90;;;14.48;100.00;99777.06;4968033;28;20105;-78
2023/07/02 03:09:35;;;;;;;32.47;5.95;;;15.50;99.90;;;14.49;100.00;99779.59;4951547;28;20056;-78
2023/07/02 03:12:01;;;;;;;25.05;6.20;;;15.50;99.90;;;14.48;100.00;99785.84;4930848;28;20105;-78
2023/07/02 03:14:30;;;;;;;;;;;15.50;99.90;;;14.40;100.00;99780.28;4974469;28;20054;-77
2023/07/02 03:17:03;;;;;;;9.98;4.95;;;15.40;99.90;;;14.38;100.00;99782.22;4997581;28;20000;-78
2023/07/02 03:19:28;;;;;;;14.20;4.95;;;15.40;99.90;;;14.45;100.00;99786.09;4972514;28;20038;-78
2023/07/02 03:21:54;;;;;;;22.38;5.50;;;15.50;99.90;;;14.56;100.00;99793.25;4975110;28;20041;-77
2023/07/02 03:24:21;;;;;;;18.15;5.50;;;15.50;99.90;;;14.65;100.00;99781.09;4973990;28;20134;-77
2023/07/02 03:26:46;;;;;;;16.23;4.72;;;15.60;99.90;;;14.75;100.00;99784.66;4962459;28;20648;-78
2023/07/02 03:29:12;;;;;;;19.98;4.88;;;15.70;99.90;;;14.82;100.00;99791.19;4986434;28;20045;-77
2023/07/02 03:31:40;;;;;;;;;;;15.80;99.90;;;14.92;100.00;99788.63;4979911;28;20117;-78
2023/07/02 03:34:09;;;;;;;16.85;5.22;;;15.80;99.90;;;15.03;100.00;99791.28;4963762;28;19914;-78
2023/07/02 03:36:36;;;;;;;18.33;4.45;;;16.00;99.90;;;15.17;100.00;99790.19;4980138;28;20034;-78
2023/07/02 03:39:03;;;;;;;22.27;4.97;;;16.00;99.90;;;15.28;100.00;99784.84;4956413;28;20042;-78
2023/07/02 03:41:31;;;;;;;20.27;4.22;;;16.10;99.90;;;15.27;100.00;99791.13;4964570;28;20518;-77
2023/07/02 03:43:59;;;;;;;18.27;4.57;;;16.30;99.90;;;15.45;100.00;99793.25;4956086;28;20047;-78
2023/07/02 03:46:25;;;;;;;27.17;5.05;;;16.40;99.90;;;15.59;100.00;99793.81;4936663;28;20080;-78
2023/07/02 03:48:51;;;;;;;12.13;4.30;;;16.40;99.90;;;15.62;100.00;99792.69;4945704;28;20054;-77
2023/07/02 03:51:16;;;;;;;17.45;4.05;;;16.40;99.90;;;15.58;100.00;99788.63;4943652;28;20097;-77
2023/07/02 03:53:42;;;;;;;;;;;16.50;99.90;;;15.55;100.00;99784.41;4982427;28;20057;-78
2023/07/02 03:56:08;;;;;;;14.15;4.15;;;;;;;15.55;100.00;99792.38;4988447;28;19922;-78
2023/07/02 03:58:39;;;;;;;14.23;4.35;;;16.40;99.90;;;15.55;100.00;99789.72;4998399;28;20104;-78
2023/07/02 04:01:05;;;;;;;22.42;4.13;;;16.50;99.90;;;15.66;100.00;99790.63;4981143;28;20042;-77
2023/07/02 04:03:30;;;;;;;20.00;4.70;;;16.60;99.90;;;15.75;100.00;99789.91;4920748;28;20062;-77
2023/07/02 04:05:56;;;;;;;15.73;4.25;;;16.60;99.90;;;15.71;100.00;99791.97;4960900;28;20554;-78
2023/07/02 04:08:24;;;;;;;;;;;16.60;99.90;;;15.72;100.00;99790.16;4926885;28;20349;-78
2023/07/02 04:10:50;;;;;;;18.80;4.35;;;17.20;99.90;;;16.85;100.00;99792.94;4938055;28;19918;-78
2023/07/02 04:13:18;;;;;;;14.82;3.90;;;18.40;99.90;;;18.30;95.72;99804.69;4964921;28;20102;-77
2023/07/02 04:15:44;;;;;;;15.73;3.75;;;18.70;99.90;;;18.65;88.78;99809.34;4967986;28;20040;-77
2023/07/02 04:18:10;;;;;;;18.25;4.10;;;19.00;99.90;;;18.64;86.85;99817.53;4937512;28;20121;-78
2023/07/02 04:20:38;;;;;;;14.38;3.35;;;20.30;99.90;;;20.69;80.52;99825.78;4955848;28;20080;-77
2023/07/02 04:23:07;;;;;;;14.48;3.53;;;20.50;99.90;;;20.07;78.20;99814.28;4991339;28;20046;-78
2023/07/02 04:25:33;;;;;;;17.83;3.90;;;20.20;99.90;;;19.26;79.76;99800.00;4943970;28;20072;-77
2023/07/02 04:27:59;;;;;;;11.13;3.03;;;19.70;99.90;;;18.58;81.59;99792.28;4955185;28;20109;-77
2023/07/02 04:30:25;;;;;;;16.70;3.50;;;19.20;99.90;;;17.95;83.87;99786.69;4985379;28;20660;-77
2023/07/02 04:32:52;;;;;;;10.98;3.70;;;18.70;99.90;;;17.59;86.04;99789.88;4986233;28;20042;-78
2023/07/02 04:35:18;;;;;;;18.60;4.07;;;18.40;99.90;;;17.29;88.14;99785.50;4954810;28;20041;-78
2023/07/02 04:37:44;;;;;;;10.02;3.15;;;18.20;99.90;;;17.02;90.11;99773.69;4965320;28;20033;-76
2023/07/02 04:40:10;;;;;;;13.88;4.35;;;18.00;99.90;;;16.90;91.36;99785.41;4958362;28;20030;-77
2023/07/02 04:42:46;;;;;;;19.30;3.90;;;17.80;99.90;;;16.90;92.29;99780.09;4945567;28;20038;-77
2023/07/02 04:45:15;;;;;;;13.75;3.90;;;17.80;99.90;;;16.99;92.25;99792.56;4966390;28;20126;-77
2023/07/02 04:47:44;;;;;;;11.30;3.63;;;18.10;99.90;;;18.09;89.29;99802.22;4948174;28;20065;-78
2023/07/02 04:50:14;;;;;;;11.68;3.50;;;18.50;99.90;;;18.63;85.02;99808.66;4955982;28;20332;-78
2023/07/02 04:52:39;;;;;;;12.63;3.33;;;19.20;99.90;;;20.03;80.00;99820.94;4978250;28;20046;-77
2023/07/02 04:55:10;;;;;;;10.90;3.13;;;20.20;99.90;;;21.42;74.48;99829.75;4967042;28;20050;-77
2023/07/02 04:57:36;;;;;;;11.60;3.30;;;21.30;99.90;;;22.63;68.95;99837.16;4951399;28;20039;-77
2023/07/02 05:00:05;;;;;;;13.98;2.90;;;21.80;99.90;;;23.34;67.38;99848.03;4976026;28;20302;-77
2023/07/02 05:02:31;;;;;;;16.00;2.92;;;22.60;99.90;;;23.22;65.30;99847.59;4980728;28;20037;-77
2023/07/02 05:04:57;;;;;;;14.70;3.38;;;22.40;99.90;;;21.83;68.06;99837.03;4964839;28;20041;-79
2023/07/02 05:07:23;;;;;;;21.27;4.07;;;21.80;99.90;;;20.61;71.54;99840.94;4980374;28;20426;-77
2023/07/02 05:09:51;;;;;;;14.02;2.80;;;21.30;99.90;;;20.34;72.23;99829.34;4970390;28;20101;-77
2023/07/02 05:12:17;;;;;;;14.35;4.35;;;20.70;99.90;;;19.39;74.95;99823.63;4979045;28;20030;-77
2023/07/02 05:14:43;;;;;;;14.85;3.17;;;20.40;99.90;;;19.76;75.69;99827.19;4976803;28;20968;-77
2023/07/02 05:17:08;;;;;;;15.48;3.78;;;20.20;99.90;;;19.35;76.10;99816.94;4976315;28;20057;-77
2023/07/02 05:19:34;;;;;;;12.85;3.40;;;20.00;99.90;;;19.52;76.48;99815.25;4976963;28;20034;-77
2023/07/02 05:22:02;;;;;;;;;;;20.00;99.90;;;19.30;75.86;99811.19;4990227;28;20812;-77
2023/07/02 05:24:30;;;;;;;12.40;3.65;;;19.80;99.90;;;19.82;76.23;99821.25;4993597;28;19913;-77
2023/07/02 05:26:56;;;;;;;12.32;4.35;;;20.20;99.90;;;20.62;73.21;99830.06;4980892;28;20112;-77
2023/07/02 05:29:21;;;;;;;18.13;3.85;;;20.30;99.90;;;20.04;73.73;99818.13;4974130;28;20049;-77
2023/07/02 05:31:47;;;;;;;13.52;3.97;;;20.40;99.90;;;20.71;72.27;99828.25;4963818;28;20117;-78
2023/07/02 05:34:13;;;;;;;11.98;3.40;;;21.00;99.90;;;22.32;67.29;99845.94;4969362;28;20098;-77
2023/07/02 05:36:39;;;;;;;11.52;3.33;;;22.10;99.90;;;25.04;61.44;99872.06;4974686;28;20050;-78
2023/07/02 05:39:04;;;;;;;;;;;22.30;99.90;;;25.94;57.55;99860.09;4973656;28;20559;-77
2023/07/02 05:41:30;;;;;;;10.63;3.67;;;24.40;99.90;;;26.35;56.68;99865.66;4974870;28;19925;-77
2023/07/02 05:44:00;;;;;;;;;;;24.70;99.90;;;27.01;53.86;99870.69;4959158;28;20503;-77
2023/07/02 05:46:26;;;;;;;16.65;3.30;;;25.30;99.90;;;26.38;54.70;99857.16;5015185;28;19921;-77
2023/07/02 05:48:52;;;;;;;15.43;3.28;;;25.60;99.90;;;26.51;55.16;99869.09;4963301;28;20026;-77
2023/07/02 05:51:22;;;;;;;12.73;3.20;;;25.40;99.90;;;26.11;56.20;99874.16;4969440;28;20042;-77
2023/07/02 05:53:48;;;;;;;19.73;3.58;;;24.90;99.90;;;24.20;59.38;99864.13;4973353;28;20034;-77
2023/07/02 05:56:14;;;;;;;17.35;4.28;;;24.20;99.90;;;23.02;61.82;99855.19;4964898;28;20516;-77
2023/07/02 05:58:40;;;;;;;15.98;3.00;;;23.80;99.90;;;24.30;61.10;99878.16;4955542;28;20047;-77
2023/07/02 06:01:06;;;;;;;15.77;3.75;;;23.70;99.90;;;23.40;60.97;99855.38;4953523;28;20116;-76
2023/07/02 06:03:32;;;;;;;17.48;3.05;;;23.80;99.90;;;24.23;59.13;99872.66;4977387;28;20125;-77
2023/07/02 06:05:58;;;;;;;14.27;3.30;;;24.60;99.90;;;25.90;55.82;99872.31;4989645;28;20026;-77
2023/07/02 06:08:24;;;;;;;10.63;2.75;;;25.50;99.90;;;27.41;52.52;99897.13;4992842;28;20038;-77
2023/07/02 06:10:50;;;;;;;13.57;3.25;;;26.20;99.90;;;28.12;50.97;99893.16;4951121;28;20101;-77
2023/07/02 06:13:16;;;;;;;13.77;3.65;;;27.10;99.90;;;29.11;48.70;99913.16;4963715;28;20130;-77
2023/07/02 06:15:43;;;;;;;22.23;3.65;;;28.00;99.90;;;29.97;47.57;99917.41;4990743;28;20026;-77
2023/07/02 06:18:09;;;;;;;20.27;4.03;;;28.40;99.90;;;29.48;47.24;99922.41;4981573;28;20038;-77
2023/07/02 06:20:34;;;;;;;21.83;3.47;;;28.40;99.90;;;29.64;47.95;99930.06;4968482;28;20033;-77
2023/07/02 06:23:01;;;;;;;15.23;3.55;;;28.30;99.50;;;28.68;49.16;99919.03;4992167;28;20126;-77
2023/07/02 06:25:26;;;;;;;14.73;3.40;;;28.30;99.40;;;29.15;47.51;99933.38;4991275;28;20037;-77
2023/07/02 06:27:54;;;;;;;9.60;3.50;;;28.70;99.40;;;29.75;46.30;99944.88;4990738;28;20030;-77
2023/07/02 06:30:24;;;;;;;15.18;3.60;;;28.90;97.60;;;29.15;46.25;99945.03;4980203;28;20047;-77
2023/07/02 06:32:50;;;;;;;20.90;4.60;;;28.70;97.40;;;29.15;46.42;99953.19;4986098;28;20030;-77
2023/07/02 06:35:16;;;;;;;16.25;3.03;;;28.80;98.20;;;29.88;45.80;99962.16;4987859;28;20426;-77
2023/07/02 06:37:42;;;;;;;15.65;3.45;;;28.90;96.90;;;28.92;46.52;99950.06;4973189;28;20030;-77
2023/07/02 06:40:09;;;;;;;18.67;3.88;;;28.60;96.50;;;28.32;47.30;99947.34;4963661;28;20062;-77
2023/07/02 06:42:37;;;;;;;17.67;4.28;;;28.40;97.10;;;28.67;46.80;99961.53;4974579;28;20043;-77
2023/07/02 06:45:04;;;;;;;16.90;3.75;;;28.40;97.80;;;28.89;47.19;99964.88;4980264;28;20034;-77
2023/07/02 06:47:30;;;;;;;13.93;3.67;;;28.50;97.60;;;28.45;47.06;99955.47;4991285;28;20553;-77
2023/07/02 06:49:56;;;;;;;15.32;3.78;;;28.60;96.60;;;29.01;45.83;99970.50;4979487;28;20050;-77
2023/07/02 06:52:22;;;;;;;21.75;4.18;;;28.50;96.70;;;28.29;46.85;99967.50;4977898;28;20775;-77
2023/07/02 06:54:51;;;;;;;21.75;4.07;;;28.20;97.00;;;27.84;47.78;99959.06;4944474;28;20049;-77
2023/07/02 06:57:16;;;;;;;18.02;3.90;;;27.80;97.80;;;27.06;49.38;99950.31;4959428;28;20041;-77
2023/07/02 06:59:42;;;;;;;16.25;3.78;;;27.40;97.80;;;26.71;50.20;99953.81;4973265;28;20538;-77
2023/07/02 07:02:08;;;;;;;18.00;4.10;;;27.00;98.10;;;26.34;50.51;99936.03;4963116;28;20121;-77
2023/07/02 07:04:37;;;;;;;17.50;4.18;;;26.60;98.00;;;25.77;51.49;99937.69;4964454;28;20133;-77
2023/07/02 07:07:03;;;;;;;17.90;4.05;;;26.20;98.90;;;25.67;52.05;99931.75;4969632;28;20050;-77
2023/07/02 07:09:30;;;;;;;14.95;3.85;;;25.80;98.80;;;25.12;52.50;99932.06;4964901;28;20042;-77
2023/07/02 07:11:56;;;;;;;14.38;3.97;;;25.70;99.10;;;25.08;53.05;99924.53;4985162;28;20502;-77
2023/07/02 07:14:22;;;;;;;25.90;4.22;;;25.70;99.80;;;26.14;51.35;99927.75;4989860;28;20046;-77
2023/07/02 07:16:49;;;;;;;14.50;3.85;;;26.30;99.60;;;26.87;49.49;99943.75;4970957;28;20033;-76
2023/07/02 07:19:19;;;;;;;11.90;4.00;;;26.80;98.70;;;27.63;47.90;99964.59;4988086;28;20031;-77
2023/07/02 07:21:45;;;;;;;22.60;4.50;;;27.00;97.00;;;27.11;47.48;99953.28;4987154;28;20045;-77
2023/07/02 07:24:11;;;;;;;19.58;3.80;;;27.40;97.10;;;27.97;47.28;99969.97;4962924;28;20062;-77
2023/07/02 07:26:37;;;;;;;21.50;4.40;;;27.90;96.20;;;28.23;45.51;99977.31;4988945;28;20152;-77
2023/07/02 07:29:04;;;;;;;29.08;4.45;;;27.80;95.70;;;27.17;46.72;99964.13;4970760;28;20033;-77
2023/07/02 07:31:30;;;;;;;25.50;4.72;;;27.70;96.50;;;28.04;46.33;99979.97;4987473;28;20035;-77
2023/07/02 07:33:55;;;;;;;28.08;4.80;;;28.20;95.60;;;28.58;44.45;99995.31;4977171;28;20069;-77
2023/07/02 07:36:21;;;;;;;16.27;4.45;;;28.00;95.70;;;27.22;47.22;99978.94;4979048;28;20184;-77
2023/07/02 07:38:47;;;;;;;16.58;4.38;;;27.10;95.40;;;25.48;49.58;99966.34;4980639;28;20054;-77
2023/07/02 07:41:13;;;;;;;21.10;4.90;;;26.10;96.90;;;25.16;51.12;99967.53;4980642;28;20529;-77
2023/07/02 07:43:38;;;;;;;21.13;4.15;;;26.20;99.20;;;26.26;49.56;99958.56;4980509;28;20125;-77
2023/07/02 07:46:04;;;;;;;17.58;4.18;;;26.50;98.30;;;26.78;49.22;99972.75;4990561;28;20040;-77
2023/07/02 07:48:30;;;;;;;20.50;4.32;;;26.80;98.40;;;27.13;48.76;99976.38;4983411;28;20058;-77
2023/07/02 07:50:56;;;;;;;18.00;4.25;;;27.30;95.80;;;27.77;45.25;99977.94;4976720;28;21065;-77
2023/07/02 07:53:22;;;;;;;15.65;4.43;;;27.30;95.20;;;26.73;47.16;99975.22;4989678;28;20034;-77
2023/07/02 07:55:48;;;;;;;22.33;5.05;;;27.00;96.40;;;26.57;47.79;99971.78;4987979;28;20034;-77
2023/07/02 07:58:13;;;;;;;21.83;4.47;;;26.70;97.80;;;26.27;49.89;99964.81;5006631;28;20137;-77
2023/07/02 08:00:39;;;;;;;21.98;4.25;;;26.80;96.20;;;27.06;46.73;99985.44;4965109;28;20507;-77
2023/07/02 08:03:05;;;;;;;17.70;4.22;;;27.20;94.90;;;27.51;45.03;99984.06;4988438;28;20125;-77
2023/07/02 08:05:31;;;;;;;26.05;4.45;;;27.50;95.10;;;27.72;44.78;100003.94;4986838;28;20129;-77
2023/07/02 08:07:59;;;;;;;26.58;4.90;;;27.40;94.00;;;27.32;45.25;99995.63;4958744;28;20049;-77
2023/07/02 08:10:25;;;;;;;16.88;4.38;;;27.20;95.20;;;27.21;46.30;99994.28;4983291;28;20128;-77
2023/07/02 08:12:54;;;;;;;25.95;4.63;;;26.70;93.90;;;25.78;46.87;99987.88;4989482;28;20041;-77
2023/07/02 08:15:20;;;;;;;14.95;4.68;;;26.10;94.40;;;25.38;47.75;99971.22;4986667;28;20026;-77
2023/07/02 08:17:46;;;;;;;26.48;4.72;;;25.80;95.70;;;25.83;48.01;99988.19;4955885;28;20045;-76
2023/07/02 08:20:12;;;;;;;15.88;4.50;;;25.90;94.80;;;25.75;46.14;99993.66;4980669;28;20109;-76
2023/07/02 08:22:39;;;;;;;19.10;4.15;;;25.80;93.10;;;25.17;46.22;99985.38;4979753;28;20427;-77
2023/07/02 08:25:06;;;;;;;16.30;4.70;;;25.80;94.10;;;25.73;45.60;99998.41;4965611;28;20117;-77
2023/07/02 08:27:32;;;;;;;20.67;4.63;;;25.70;95.20;;;25.50;46.47;99990.44;4990996;28;20038;-77
2023/07/02 08:29:58;;;;;;;16.45;4.82;;;25.60;95.10;;;24.88;48.08;99976.25;4986919;28;20090;-76
2023/07/02 08:32:24;;;;;;;17.42;5.13;;;25.10;95.00;;;24.10;49.16;99966.56;4989119;28;20555;-76
2023/07/02 08:34:53;;;;;;;22.73;5.18;;;24.60;95.40;;;23.30;50.52;99951.44;4972599;28;20565;-77
2023/07/02 08:37:22;;;;;;;24.13;5.32;;;24.10;96.30;;;23.27;50.99;99965.22;4953951;28;20050;-77
2023/07/02 08:39:49;;;;;;;29.48;5.18;;;23.90;96.30;;;23.29;50.49;99953.31;4959728;28;20470;-77
2023/07/02 08:42:15;;;;;;;18.48;5.13;;;24.00;97.40;;;23.60;51.12;99952.50;4967149;28;20018;-77
2023/07/02 08:44:46;;;;;;;21.60;5.57;;;24.00;96.80;;;23.58;50.56;99946.47;4990130;28;20041;-76
2023/07/02 08:47:11;;;;;;;23.90;5.88;;;24.10;96.00;;;23.84;50.19;99953.44;4987839;28;20522;-77
2023/07/02 08:49:38;;;;;;;22.70;5.85;;;24.30;96.60;;;24.05;49.29;99963.56;4973061;28;20041;-77
2023/07/02 08:52:04;;;;;;;17.60;5.68;;;24.40;97.00;;;24.29;49.19;99955.31;4977593;28;20469;-76
2023/07/02 08:54:30;;;;;;;24.73;5.78;;;24.60;95.60;;;24.09;48.73;99970.25;4988099;28;20042;-76
2023/07/02 08:56:56;;;;;;;22.40;5.90;;;24.60;95.70;;;24.02;48.59;99959.38;4988284;28;20058;-77
2023/07/02 08:59:22;;;;;;;30.60;5.80;;;24.40;95.00;;;23.71;49.16;99962.03;4974763;28;20073;-76
2023/07/02 09:01:58;;;;;;;20.95;5.70;;;24.30;96.20;;;23.71;49.92;99975.47;4978677;28;20477;-77
2023/07/02 09:04:25;;;;;;;18.85;5.78;;;24.30;96.20;;;23.92;49.95;99970.34;4972375;28;20033;-77
2023/07/02 09:07:10;;;;;;;20.83;6.05;;;24.40;95.20;;;24.04;48.33;99961.88;4989142;28;20561;-76
2023/07/02 09:09:52;;;;;;;19.52;6.05;;;24.50;95.10;;;24.16;48.39;99971.22;4971571;28;20041;-77
2023/07/02 09:12:29;;;;;;;17.02;5.78;;;24.50;94.70;;;23.96;48.48;99968.16;4987190;28;20041;-77
2023/07/02 09:15:06;;;;;;;22.67;6.18;;;24.60;95.20;;;24.19;48.97;99976.25;4995798;28;20550;-77
2023/07/02 09:17:38;;;;;;;26.73;5.68;;;24.60;95.60;;;24.21;48.65;99974.22;4968914;28;20125;-77
2023/07/02 09:20:08;;;;;;;16.80;6.75;;;24.60;95.10;;;24.08;48.66;99972.13;4978553;28;20714;-76
2023/07/02 09:22:35;;;;;;;20.00;5.68;;;24.40;95.50;;;23.52;49.54;99974.88;4933023;28;20172;-77
2023/07/02 09:25:02;;;;;;;30.73;6.45;;;24.00;94.80;;;23.04;49.41;99967.78;4988287;28;20078;-77
2023/07/02 09:27:41;;;;;;;17.73;6.15;;;23.80;95.30;;;23.19;49.70;99963.41;4986310;28;20380;-77
2023/07/02 09:30:15;;;;;;;19.25;6.28;;;23.90;96.10;;;23.46;49.84;99956.78;4981690;28;20085;-77
2023/07/02 09:32:44;;;;;;;18.00;6.60;;;24.00;96.10;;;23.61;49.93;99954.19;4972329;28;20036;-77
2023/07/02 09:35:19;;;;;;;18.65;6.45;;;24.20;96.90;;;24.01;49.93;99955.00;4974182;28;20084;-77
2023/07/02 09:37:46;;;;;;;21.97;6.10;;;24.40;96.00;;;24.06;48.97;99962.53;4974390;28;20033;-77
2023/07/02 09:40:16;;;;;;;24.60;6.22;;;24.40;94.10;;;23.69;47.98;99975.66;4977513;28;20487;-77
2023/07/02 09:42:48;;;;;;;21.13;6.45;;;24.20;93.80;;;23.28;48.69;99962.38;4980525;28;20042;-77
2023/07/02 09:45:14;;;;;;;25.17;6.30;;;24.00;95.00;;;23.45;48.18;99968.50;4973237;28;20033;-77
2023/07/02 09:47:48;;;;;;;17.13;5.80;;;24.00;94.80;;;23.50;48.37;99974.22;4992363;28;20038;-77
2023/07/02 09:50:17;;;;;;;22.02;6.55;;;23.90;94.70;;;23.14;48.51;99963.91;4992757;28;20514;-77
2023/07/02 09:52:53;;;;;;;24.35;6.68;;;23.80;95.00;;;23.06;49.38;99963.94;4992499;28;20495;-76
2023/07/02 09:55:21;;;;;;;13.75;5.63;;;23.70;95.80;;;23.21;49.28;99961.38;4992561;28;20149;-76
2023/07/02 09:57:47;;;;;;;19.50;6.40;;;23.90;96.30;;;23.49;50.13;99961.78;4980678;28;20514;-77
2023/07/02 10:00:15;;;;;;;21.70;6.47;;;24.10;96.10;;;23.74;49.39;99959.84;4995115;28;20744;-77
2023/07/02 10:02:43;;;;;;;21.65;6.97;;;24.30;94.50;;;23.87;47.77;99962.00;4980797;28;20042;-77
2023/07/02 10:05:13;;;;;;;13.85;5.97;;;24.40;95.60;;;23.98;49.03;99958.06;4990625;28;20054;-77
2023/07/02 10:07:39;;;;;;;16.13;6.07;;;24.30;93.90;;;23.60;47.99;99949.00;4983900;28;20497;-77
2023/07/02 10:10:10;;;;;;;21.02;6.07;;;24.10;93.10;;;23.30;46.80;99967.56;4976548;28;20058;-77
2023/07/02 10:12:49;;;;;;;20.20;6.15;;;24.00;93.50;;;23.07;47.62;99965.63;4993475;28;20030;-77
2023/07/02 10:15:37;;;;;;;22.60;6.43;;;23.70;92.40;;;22.46;46.80;99958.91;4991811;28;20185;-77